Snyder, Missouri
Current Conditions -  °F | °C
As of 7:15 AM on Monday 24 Nov 2014 (Local Time) from KMHL Reporting Station
Overcast Overcast  
Wind Chill: 25°   Ceiling: 4400
Heat Index: 36°   Visibility: 10mi
Dew Point: 28°   Wind: 17mph
Humidity: 75%   Direction: 270°W
Pressure: 29.59"   Gusts: 26mph
Location:  39.5082°N, 93.2104°W
Report Text: KMHL 241315Z AUTO 27015G23KT 10SM SCT035 OVC044 02/M02 A2959 RMK AO2
Loading
Personal Weather Stations






























Interactive Weather Map New forecast layout! Learn more

10-Day Weather Forecast

Advertisements
Track Severe Weather on mobile